createdAt,value
2019-01-27T00:04:35.482Z,86.84
2019-01-27T00:07:24.261Z,87.22
2019-01-27T00:10:13.249Z,87.49
2019-01-27T00:13:02.034Z,87.18
2019-01-27T00:15:50.843Z,87.02
2019-01-27T00:18:39.663Z,87.76
2019-01-27T00:21:28.447Z,87.32
2019-01-27T00:24:17.258Z,87.20
2019-01-27T00:27:06.055Z,87.17
2019-01-27T00:29:54.863Z,87.24
2019-01-27T00:32:43.672Z,86.97
2019-01-27T00:35:32.719Z,87.07
2019-01-27T00:38:21.523Z,87.32
2019-01-27T00:41:10.309Z,86.83
2019-01-27T00:43:59.118Z,86.71
2019-01-27T00:46:47.897Z,86.86
2019-01-27T00:49:36.710Z,86.68
2019-01-27T00:52:25.493Z,87.04
2019-01-27T00:55:33.617Z,86.81
2019-01-27T00:58:22.426Z,86.81
2019-01-27T01:01:11.289Z,86.70
2019-01-27T01:04:00.100Z,87.03
2019-01-27T01:06:49.322Z,87.08
2019-01-27T01:09:38.126Z,87.19
2019-01-27T01:12:27.727Z,86.95
2019-01-27T01:18:31.765Z,86.95
2019-01-27T01:21:20.629Z,87.19
2019-01-27T01:24:09.428Z,87.10
2019-01-27T01:26:58.219Z,87.08
2019-01-27T01:29:47.025Z,87.45
2019-01-27T01:32:35.824Z,87.25
2019-01-27T01:35:43.732Z,87.28
2019-01-27T01:38:32.519Z,87.44
2019-01-27T01:41:21.326Z,87.65
2019-01-27T01:44:10.116Z,87.75
2019-01-27T01:46:58.922Z,87.54
2019-01-27T01:49:47.731Z,87.67
2019-01-27T01:52:36.524Z,87.25
2019-01-27T01:55:25.330Z,87.21
2019-01-27T01:58:14.206Z,86.79
2019-01-27T02:01:22.110Z,86.57
2019-01-27T02:04:10.895Z,86.84
2019-01-27T02:06:59.701Z,87.04
2019-01-27T02:09:48.510Z,87.04
2019-01-27T02:12:37.305Z,87.40
2019-01-27T02:15:47.057Z,87.94
2019-01-27T02:24:58.997Z,87.53
2019-01-27T02:27:47.806Z,87.57
2019-01-27T02:30:36.661Z,87.21
2019-01-27T02:33:25.468Z,87.34
2019-01-27T02:36:33.624Z,87.46
2019-01-27T02:39:22.435Z,87.18
2019-01-27T02:42:11.217Z,87.24
2019-01-27T02:45:00.019Z,86.81
2019-01-27T02:47:48.810Z,86.88
2019-01-27T02:50:37.635Z,87.05
2019-01-27T02:53:19.656Z,87.32
2019-01-27T02:56:08.465Z,86.97
2019-01-27T02:58:57.253Z,86.88
2019-01-27T03:01:46.070Z,86.80
2019-01-27T03:04:53.878Z,87.15
2019-01-27T03:07:42.690Z,86.70
2019-01-27T03:10:31.482Z,87.01
2019-01-27T03:13:20.288Z,86.64
2019-01-27T03:19:16.844Z,86.53
2019-01-27T03:22:24.733Z,86.55
2019-01-27T03:25:34.445Z,86.44
2019-01-27T03:28:23.237Z,86.18
2019-01-27T03:31:12.047Z,86.11
2019-01-27T03:34:00.839Z,86.11
2019-01-27T03:36:49.648Z,85.88
2019-01-27T03:39:38.440Z,86.19
2019-01-27T03:42:47.103Z,86.56
2019-01-27T03:45:36.186Z,86.38
2019-01-27T03:48:25.069Z,86.50
2019-01-27T03:51:13.857Z,86.36
2019-01-27T03:53:55.855Z,86.11
2019-01-27T03:56:44.654Z,86.74
2019-01-27T03:59:33.456Z,86.50
2019-01-27T04:02:22.252Z,86.31
2019-01-27T04:05:11.109Z,86.47
2019-01-27T04:07:59.917Z,86.71
2019-01-27T04:10:48.700Z,86.66
2019-01-27T04:13:37.515Z,86.70
2019-01-27T04:16:26.376Z,86.50
2019-01-27T04:22:09.173Z,86.53
2019-01-27T04:24:57.984Z,86.24
2019-01-27T04:27:46.913Z,86.63
2019-01-27T04:33:34.801Z,86.29
2019-01-27T04:36:23.589Z,86.58
2019-01-27T04:39:12.404Z,86.47
2019-01-27T04:42:01.201Z,86.36
2019-01-27T04:44:50.326Z,86.38
2019-01-27T04:47:39.132Z,86.33
2019-01-27T04:50:27.940Z,86.33
2019-01-27T04:53:09.635Z,86.89
2019-01-27T04:55:58.429Z,86.27
2019-01-27T04:58:47.245Z,86.13
2019-01-27T05:01:36.031Z,86.20
2019-01-27T05:07:20.755Z,85.69
2019-01-27T05:10:30.484Z,85.66
2019-01-27T05:13:19.272Z,86.03
2019-01-27T05:16:27.175Z,85.54
2019-01-27T05:19:15.963Z,85.54
2019-01-27T05:22:04.859Z,85.94
2019-01-27T05:24:53.650Z,86.24
2019-01-27T05:27:42.466Z,86.36
2019-01-27T05:30:50.277Z,86.11
2019-01-27T05:33:39.081Z,86.30
2019-01-27T05:36:27.876Z,86.15
2019-01-27T05:39:16.686Z,86.20
2019-01-27T05:42:05.582Z,86.04
2019-01-27T05:44:54.353Z,86.62
2019-01-27T05:47:43.165Z,87.17
2019-01-27T05:50:32.003Z,87.41
2019-01-27T05:53:20.759Z,87.34
2019-01-27T05:56:00.508Z,87.54
2019-01-27T05:58:49.301Z,86.96
2019-01-27T06:04:32.708Z,87.11
2019-01-27T06:07:21.517Z,87.12
2019-01-27T06:10:31.227Z,87.78
2019-01-27T06:13:20.033Z,87.57
2019-01-27T06:16:08.831Z,87.83
2019-01-27T06:18:57.641Z,87.20
2019-01-27T06:21:46.596Z,87.55
2019-01-27T06:24:35.404Z,87.60
2019-01-27T06:27:24.194Z,86.99
2019-01-27T06:30:32.320Z,87.31
2019-01-27T06:33:40.133Z,86.96
2019-01-27T06:36:28.950Z,87.38
2019-01-27T06:39:17.796Z,86.76
2019-01-27T06:42:06.908Z,87.00
2019-01-27T06:44:55.702Z,86.97
2019-01-27T06:47:44.512Z,86.72
2019-01-27T06:50:33.296Z,86.97
2019-01-27T06:53:22.101Z,86.66
2019-01-27T06:56:01.953Z,87.34
2019-01-27T06:59:09.822Z,87.24
2019-01-27T07:08:43.331Z,87.35
2019-01-27T07:17:42.515Z,86.82
2019-01-27T07:23:59.736Z,86.73
2019-01-27T07:27:07.570Z,86.75
2019-01-27T07:29:56.125Z,86.69
2019-01-27T07:35:59.497Z,86.98
2019-01-27T07:39:07.316Z,87.05
2019-01-27T07:42:15.148Z,87.19
2019-01-27T07:48:18.745Z,86.78
2019-01-27T07:54:25.916Z,86.60
2019-01-27T08:00:41.612Z,86.46
2019-01-27T08:03:49.429Z,86.80
2019-01-27T08:06:57.260Z,86.64
2019-01-27T08:10:05.080Z,86.70
2019-01-27T08:16:12.147Z,85.73
2019-01-27T08:19:19.965Z,85.77
2019-01-27T08:22:27.796Z,86.20
2019-01-27T08:25:35.858Z,85.64
2019-01-27T08:28:43.707Z,85.41
2019-01-27T08:31:51.525Z,85.96
2019-01-27T08:40:57.601Z,85.67
2019-01-27T08:44:05.419Z,85.24
2019-01-27T08:46:54.222Z,84.92
2019-01-27T08:49:43.036Z,85.21
2019-01-27T08:52:31.824Z,84.84
2019-01-27T08:55:20.637Z,84.85
2019-01-27T08:58:02.080Z,84.81
2019-01-27T09:04:05.674Z,85.03
2019-01-27T09:07:13.484Z,84.84
2019-01-27T09:10:21.318Z,84.96
2019-01-27T09:22:30.301Z,85.98
2019-01-27T09:31:32.876Z,85.74
2019-01-27T09:34:21.442Z,85.59
2019-01-27T09:37:29.327Z,85.86
2019-01-27T09:40:37.160Z,86.12
2019-01-27T09:43:44.978Z,85.83
2019-01-27T09:46:52.820Z,86.45
2019-01-27T09:50:00.626Z,85.91
2019-01-27T09:53:08.708Z,85.56
2019-01-27T09:59:25.984Z,85.94
2019-01-27T10:02:34.856Z,86.70
2019-01-27T10:08:42.718Z,85.76
2019-01-27T10:11:50.530Z,86.08
2019-01-27T10:14:58.370Z,85.44
2019-01-27T10:17:46.937Z,86.03
2019-01-27T10:24:04.147Z,85.45
2019-01-27T10:27:11.980Z,85.48
2019-01-27T10:30:19.788Z,85.79
2019-01-27T10:36:23.117Z,85.07
2019-01-27T10:39:30.937Z,84.77
2019-01-27T10:42:38.769Z,83.83
2019-01-27T10:45:46.609Z,81.71
2019-01-27T10:48:54.487Z,81.48
2019-01-27T10:52:02.366Z,80.11
2019-01-27T11:01:03.753Z,80.17
2019-01-27T11:04:11.572Z,80.40
2019-01-27T11:07:19.411Z,80.10
2019-01-27T11:10:48.166Z,80.37
2019-01-27T11:13:55.974Z,80.18
2019-01-27T11:20:03.183Z,81.19
2019-01-27T11:26:20.400Z,80.90
2019-01-27T11:29:28.216Z,80.59
2019-01-27T11:32:36.061Z,80.73
2019-01-27T11:35:43.900Z,81.34
2019-01-27T11:38:51.715Z,81.98
2019-01-27T11:41:59.543Z,81.63
2019-01-27T11:45:07.356Z,81.53
2019-01-27T11:48:15.188Z,81.76
2019-01-27T11:54:13.374Z,81.74
2019-01-27T11:56:55.095Z,81.68
2019-01-27T11:59:43.914Z,81.83
2019-01-27T12:02:32.707Z,82.09
2019-01-27T12:05:21.525Z,81.79
2019-01-27T12:08:10.312Z,82.35
2019-01-27T12:10:59.127Z,81.73
2019-01-27T12:13:47.911Z,81.79
2019-01-27T12:16:36.750Z,81.05
2019-01-27T12:19:25.558Z,80.97
2019-01-27T12:22:14.380Z,80.46
2019-01-27T12:25:03.191Z,81.08
2019-01-27T12:27:52.028Z,80.17
2019-01-27T12:30:40.840Z,80.80
2019-01-27T12:33:29.662Z,80.24
2019-01-27T12:36:18.959Z,79.87
2019-01-27T12:42:22.833Z,79.89
2019-01-27T12:45:31.000Z,80.03
2019-01-27T12:48:19.968Z,80.35
2019-01-27T12:51:08.766Z,79.93
2019-01-27T12:53:57.596Z,79.96
2019-01-27T12:56:46.411Z,80.53
2019-01-27T12:59:28.109Z,80.91
2019-01-27T13:02:16.908Z,80.87
2019-01-27T13:05:25.506Z,80.59
2019-01-27T13:08:14.301Z,80.70
2019-01-27T13:11:05.636Z,81.38
2019-01-27T13:14:12.690Z,81.89
2019-01-27T13:17:01.595Z,82.25
2019-01-27T13:19:53.873Z,81.27
2019-01-27T13:22:40.962Z,80.97
2019-01-27T13:25:29.787Z,80.89
2019-01-27T13:28:19.051Z,80.39
2019-01-27T13:31:07.884Z,80.84
2019-01-27T13:33:56.999Z,80.64
2019-01-27T13:36:46.304Z,81.19
2019-01-27T13:39:27.045Z,81.71
2019-01-27T13:42:16.215Z,80.88
2019-01-27T13:45:26.208Z,80.81
2019-01-27T13:48:15.342Z,81.17
2019-01-27T13:51:23.376Z,81.91
2019-01-27T13:54:12.206Z,82.12
2019-01-27T13:59:56.024Z,82.44
2019-01-27T14:02:45.381Z,83.38
2019-01-27T14:05:34.831Z,82.99
2019-01-27T14:08:23.713Z,83.11
2019-01-27T14:11:12.592Z,83.03
2019-01-27T14:14:01.745Z,83.86
2019-01-27T14:22:58.223Z,83.54
2019-01-27T14:29:29.233Z,83.20
2019-01-27T14:35:54.370Z,82.89
2019-01-27T14:39:02.689Z,82.58
2019-01-27T14:41:44.837Z,82.67
2019-01-27T14:44:33.747Z,82.38
2019-01-27T14:47:41.852Z,82.63
2019-01-27T14:50:50.851Z,82.30
2019-01-27T14:53:40.102Z,82.66
2019-01-27T14:56:29.606Z,82.60
2019-01-27T15:06:02.129Z,82.76
2019-01-27T15:12:07.363Z,82.48
2019-01-27T15:18:43.238Z,82.51
2019-01-27T15:24:39.530Z,82.63
2019-01-27T15:46:15.420Z,83.62
2019-01-27T15:49:24.390Z,83.22
2019-01-27T16:01:58.104Z,82.73
2019-01-27T16:17:40.919Z,83.91
2019-01-27T16:20:49.103Z,83.61
2019-01-27T16:26:47.398Z,83.93
2019-01-27T16:35:40.241Z,84.26
2019-01-27T16:38:29.392Z,84.05
2019-01-27T16:41:18.612Z,83.75
2019-01-27T16:44:07.660Z,83.56
2019-01-27T16:46:56.510Z,83.71
2019-01-27T16:50:04.697Z,83.56
2019-01-27T16:52:54.095Z,83.94
2019-01-27T16:58:42.819Z,83.81
2019-01-27T17:01:31.791Z,84.06
2019-01-27T17:04:20.772Z,83.92
2019-01-27T17:07:09.999Z,83.59
2019-01-27T17:16:28.738Z,83.69
2019-01-27T17:19:49.537Z,83.71
2019-01-27T17:26:02.933Z,84.00
2019-01-27T17:29:11.388Z,84.04
2019-01-27T17:35:49.145Z,83.36
2019-01-27T17:45:03.186Z,85.64
2019-01-27T18:11:02.129Z,84.72
2019-01-27T18:17:26.344Z,84.15
2019-01-27T18:20:38.283Z,84.32
2019-01-27T18:27:30.076Z,85.31
2019-01-27T18:30:26.743Z,84.88
2019-01-27T18:40:21.961Z,84.19
2019-01-27T18:42:52.061Z,84.42
2019-01-27T18:49:30.372Z,83.30
2019-01-27T18:52:38.767Z,83.28
2019-01-27T18:59:12.416Z,84.00
2019-01-27T19:02:40.355Z,84.16
2019-01-27T19:31:51.935Z,80.93
2019-01-27T19:38:35.535Z,80.97
2019-01-27T19:48:26.567Z,80.58
2019-01-27T20:05:07.946Z,79.69
2019-01-27T20:08:35.927Z,79.03
2019-01-27T20:12:04.100Z,79.88
2019-01-27T20:25:31.173Z,80.18
2019-01-27T20:32:27.798Z,79.15
2019-01-27T20:35:48.512Z,79.38
2019-01-27T20:41:53.699Z,80.08
2019-01-27T20:48:30.710Z,79.92
2019-01-27T20:54:48.993Z,79.53
2019-01-27T21:16:49.580Z,80.39
2019-01-27T21:23:26.945Z,80.18
2019-01-27T21:26:50.608Z,80.16
2019-01-27T21:36:17.304Z,80.15
2019-01-27T21:43:10.995Z,80.11
2019-01-27T21:46:07.383Z,79.80
2019-01-27T21:55:28.103Z,80.65
2019-01-27T21:58:36.121Z,80.50
2019-01-27T22:01:25.597Z,80.33
2019-01-27T22:04:15.525Z,80.78
2019-01-27T22:07:04.326Z,80.71
2019-01-27T22:09:53.126Z,80.67
2019-01-27T22:12:41.931Z,80.48
2019-01-27T22:15:30.813Z,80.33
2019-01-27T22:18:19.592Z,80.63
2019-01-27T22:21:08.477Z,80.97
2019-01-27T22:26:51.450Z,81.14
2019-01-27T22:29:40.267Z,81.11
2019-01-27T22:32:29.053Z,81.25
2019-01-27T22:35:17.848Z,81.31
2019-01-27T22:38:06.644Z,80.93
2019-01-27T22:40:55.434Z,81.77
2019-01-27T22:43:36.869Z,83.00
2019-01-27T22:46:25.826Z,82.12
2019-01-27T22:49:14.643Z,81.90
2019-01-27T22:52:03.425Z,81.74
2019-01-27T22:54:52.231Z,82.01
2019-01-27T22:57:41.023Z,81.83
2019-01-27T23:01:09.771Z,81.80
2019-01-27T23:03:58.564Z,81.41
2019-01-27T23:06:47.370Z,81.56
2019-01-27T23:09:36.163Z,81.16
2019-01-27T23:12:24.962Z,81.35
2019-01-27T23:15:33.016Z,81.41
2019-01-27T23:18:21.821Z,81.27
2019-01-27T23:21:10.894Z,81.84
2019-01-27T23:23:59.685Z,81.16
2019-01-27T23:27:07.514Z,81.01
2019-01-27T23:29:56.322Z,81.13
2019-01-27T23:32:45.117Z,80.97
2019-01-27T23:35:33.923Z,80.27
2019-01-27T23:38:22.743Z,80.01
2019-01-27T23:41:11.529Z,81.12
2019-01-27T23:43:52.975Z,80.75
2019-01-27T23:47:00.810Z,81.34
2019-01-27T23:49:49.604Z,81.35
2019-01-27T23:52:38.416Z,81.29
2019-01-27T23:55:27.220Z,81.69
2019-01-27T23:58:16.265Z,81.26
